createdAt,value
2019-05-29T04:19:01.450Z,101183.31
2019-05-29T04:21:34.195Z,101186.42
2019-05-29T04:24:07.531Z,101183.42
2019-05-29T04:26:40.738Z,101181.73
2019-05-29T04:29:12.979Z,101190.97
2019-05-29T04:31:45.144Z,101194.66
2019-05-29T04:34:17.364Z,101188.20
2019-05-29T04:36:49.570Z,101190.91
2019-05-29T04:39:21.667Z,101188.40
2019-05-29T04:41:53.873Z,101190.13
2019-05-29T04:44:26.226Z,101192.93
2019-05-29T04:47:10.569Z,101200.70
2019-05-29T04:49:33.812Z,101201.77
2019-05-29T04:52:06.068Z,101199.55
2019-05-29T04:54:40.034Z,101209.63
2019-05-29T04:57:12.180Z,101214.22
2019-05-29T04:59:44.322Z,101205.65
2019-05-29T05:02:16.570Z,101207.98
2019-05-29T05:04:48.779Z,101208.18
2019-05-29T05:07:20.982Z,101212.45
2019-05-29T05:09:53.173Z,101215.95
2019-05-29T05:12:25.365Z,101205.72
2019-05-29T05:14:57.652Z,101206.71
2019-05-29T05:17:31.728Z,101208.66
2019-05-29T05:20:05.032Z,101206.27
2019-05-29T05:22:38.202Z,101196.61
2019-05-29T05:25:10.792Z,101203.14
2019-05-29T05:27:42.976Z,101192.80
2019-05-29T05:30:16.154Z,101196.82
2019-05-29T05:32:48.426Z,101197.81
2019-05-29T05:35:20.628Z,101206.34
2019-05-29T05:37:52.813Z,101205.11
2019-05-29T05:40:25.193Z,101211.83
2019-05-29T05:42:57.287Z,101216.11
2019-05-29T05:45:35.101Z,101209.54
2019-05-29T05:48:17.195Z,101208.81
2019-05-29T05:50:49.308Z,101212.81
2019-05-29T05:53:21.543Z,101217.65
2019-05-29T05:55:53.799Z,101215.77
2019-05-29T05:58:26.012Z,101217.45
2019-05-29T06:00:58.222Z,101218.00
2019-05-29T06:03:30.283Z,101223.39
2019-05-29T06:06:03.554Z,101229.84
2019-05-29T06:08:36.149Z,101232.58
2019-05-29T06:11:08.345Z,101244.93
2019-05-29T06:13:40.703Z,101246.52
2019-05-29T06:16:12.863Z,101243.56
2019-05-29T06:18:45.029Z,101230.17
2019-05-29T06:21:17.069Z,101240.59
2019-05-29T06:23:49.255Z,101242.20
2019-05-29T06:26:21.379Z,101243.69
2019-05-29T06:28:53.394Z,101241.84
2019-05-29T06:31:27.259Z,101249.41
2019-05-29T06:33:59.547Z,101250.84
2019-05-29T06:36:31.730Z,101245.55
2019-05-29T06:39:03.704Z,101255.38
2019-05-29T06:41:35.754Z,101260.21
2019-05-29T06:44:07.782Z,101262.43
2019-05-29T06:46:40.538Z,101269.47
2019-05-29T06:49:12.794Z,101265.61
2019-05-29T06:51:44.811Z,101263.20
2019-05-29T06:54:16.897Z,101261.03
2019-05-29T06:56:48.916Z,101256.39
2019-05-29T06:59:20.951Z,101267.65
2019-05-29T07:01:53.469Z,101262.29
2019-05-29T07:04:25.688Z,101263.41
2019-05-29T07:06:57.814Z,101270.44
2019-05-29T07:09:30.052Z,101249.00
2019-05-29T07:12:04.246Z,101247.84
2019-05-29T07:14:36.414Z,101243.14
2019-05-29T07:17:08.509Z,101244.06
2019-05-29T07:19:53.949Z,101237.68
2019-05-29T07:22:14.471Z,101231.55
2019-05-29T07:24:47.013Z,101236.30
2019-05-29T07:27:19.313Z,101241.08
2019-05-29T07:29:51.320Z,101242.49
2019-05-29T07:32:23.506Z,101244.98
2019-05-29T07:35:03.049Z,101238.60
2019-05-29T07:37:29.294Z,101233.36
2019-05-29T07:40:01.280Z,101230.02
2019-05-29T07:42:33.402Z,101228.91
2019-05-29T07:45:07.706Z,101227.28
2019-05-29T07:47:40.401Z,101220.30
2019-05-29T07:50:28.446Z,101215.83
2019-05-29T07:53:00.581Z,101216.12
2019-05-29T07:55:32.629Z,101211.66
2019-05-29T07:58:04.890Z,101204.95
2019-05-29T08:00:56.332Z,101190.98
2019-05-29T08:03:10.659Z,101196.83
2019-05-29T08:05:46.157Z,101200.78
2019-05-29T08:08:16.741Z,101204.41
2019-05-29T08:10:49.726Z,101199.11
2019-05-29T08:13:21.759Z,101199.99
2019-05-29T08:16:02.379Z,101202.49
2019-05-29T08:18:27.563Z,101200.25
2019-05-29T08:21:36.896Z,101202.50
2019-05-29T08:23:51.377Z,101196.35
2019-05-29T08:26:26.570Z,101201.95
2019-05-29T08:28:58.761Z,101206.15
2019-05-29T08:31:30.982Z,101195.50
2019-05-29T08:34:03.079Z,101181.52
2019-05-29T08:36:35.363Z,101193.84
2019-05-29T08:39:08.392Z,101192.16
2019-05-29T08:41:40.444Z,101184.30
2019-05-29T08:44:12.562Z,101193.55
2019-05-29T08:47:01.498Z,101190.19
2019-05-29T08:49:18.553Z,101189.64
2019-05-29T08:51:52.320Z,101192.14
2019-05-29T08:54:28.290Z,101195.78
2019-05-29T08:57:00.444Z,101190.17
2019-05-29T08:59:34.791Z,101194.69
2019-05-29T09:02:08.394Z,101188.77
2019-05-29T09:04:40.477Z,101186.54
2019-05-29T09:07:17.079Z,101188.22
2019-05-29T09:09:51.280Z,101173.09
2019-05-29T09:12:23.872Z,101171.41
2019-05-29T09:14:57.425Z,101175.61
2019-05-29T09:17:29.793Z,101172.22
2019-05-29T09:20:02.039Z,101178.36
2019-05-29T09:22:34.074Z,101172.45
2019-05-29T09:25:06.358Z,101169.10
2019-05-29T09:27:38.378Z,101170.79
2019-05-29T09:30:10.348Z,101169.37
2019-05-29T09:32:50.366Z,101161.80
2019-05-29T09:35:18.410Z,101152.00
2019-05-29T09:37:49.909Z,101162.36
2019-05-29T09:40:23.109Z,101156.75
2019-05-29T09:42:55.280Z,101157.83
2019-05-29T09:45:27.259Z,101151.41
2019-05-29T09:47:59.437Z,101158.36
2019-05-29T09:50:48.869Z,101144.06
2019-05-29T09:53:05.157Z,101149.37
2019-05-29T09:55:38.874Z,101145.50
2019-05-29T09:58:34.403Z,101141.31
2019-05-29T10:01:22.928Z,101134.79
2019-05-29T10:03:58.979Z,101141.80
2019-05-29T10:06:29.653Z,101142.86
2019-05-29T10:09:01.928Z,101150.17
2019-05-29T10:22:18.884Z,101123.12
2019-05-29T10:25:01.965Z,101124.00
2019-05-29T11:06:25.490Z,101069.17
2019-05-29T11:08:57.624Z,101055.06
2019-05-29T11:11:29.561Z,101047.48
2019-05-29T11:14:04.194Z,101045.77
2019-05-29T11:16:39.744Z,101024.42
2019-05-29T11:22:41.350Z,101003.31
2019-05-29T11:33:12.238Z,100983.72
2019-05-29T11:58:37.754Z,100992.94
2019-05-29T12:22:08.347Z,100959.17
2019-05-29T12:24:42.567Z,100959.33
2019-05-29T12:27:14.711Z,100958.33
2019-05-29T12:29:46.846Z,100958.58
2019-05-29T12:32:18.955Z,100946.41
2019-05-29T12:34:54.114Z,100954.96
2019-05-29T12:37:29.850Z,100954.96
2019-05-29T12:40:13.204Z,100958.14
2019-05-29T12:42:46.418Z,100957.05
2019-05-29T12:45:18.420Z,100951.50
2019-05-29T12:47:50.443Z,100951.50
2019-05-29T12:50:29.170Z,100957.55
2019-05-29T12:53:01.807Z,100944.97
2019-05-29T12:55:34.234Z,100942.16
2019-05-29T12:58:06.309Z,100936.73
2019-05-29T13:00:38.425Z,100923.91
2019-05-29T13:03:10.469Z,100915.33
2019-05-29T13:05:42.578Z,100908.49
2019-05-29T13:08:14.689Z,100904.42
2019-05-29T13:10:56.196Z,100906.95
2019-05-29T13:13:30.773Z,100903.58
2019-05-29T13:16:05.042Z,100910.91
2019-05-29T13:18:37.510Z,100912.38
2019-05-29T13:21:09.592Z,100914.72
2019-05-29T13:23:45.250Z,100915.31
2019-05-29T13:26:15.826Z,100942.73
2019-05-29T13:28:47.827Z,100942.73
2019-05-29T13:34:20.708Z,100957.80
2019-05-29T13:40:10.831Z,100976.16
2019-05-29T13:43:18.949Z,100973.95
2019-05-29T14:43:13.680Z,100982.33
2019-05-29T14:45:44.121Z,100982.33
2019-05-29T14:48:16.238Z,100982.33
2019-05-29T14:50:48.389Z,100983.02
2019-05-29T14:53:20.420Z,100974.98
2019-05-29T14:55:52.502Z,100978.63
2019-05-29T15:11:51.899Z,100999.06
2019-05-29T15:14:23.956Z,100999.06
2019-05-29T15:17:05.054Z,100997.27
2019-05-29T15:19:37.384Z,100997.23
2019-05-29T15:25:18.309Z,100999.56
2019-05-29T15:27:42.562Z,101008.05
2019-05-29T15:30:20.807Z,101003.54
2019-05-29T15:32:48.945Z,101012.22
2019-05-29T15:35:23.695Z,101004.74
2019-05-29T15:37:56.122Z,101004.74
2019-05-29T15:40:28.499Z,100995.30
2019-05-29T15:43:06.803Z,100995.30
2019-05-29T15:45:41.578Z,101005.70
2019-05-29T15:48:18.143Z,101004.30
2019-05-29T15:50:51.478Z,101003.17
2019-05-29T15:53:23.741Z,101006.27
2019-05-29T15:55:57.881Z,101006.27
2019-05-29T15:58:35.896Z,101018.00
2019-05-29T16:01:09.623Z,101021.09
2019-05-29T16:03:41.918Z,101014.69
2019-05-29T16:06:14.091Z,101023.48
2019-05-29T16:08:46.159Z,101019.17
2019-05-29T16:11:18.842Z,101017.16
2019-05-29T16:13:51.060Z,101017.16
2019-05-29T16:16:23.187Z,101013.30
2019-05-29T16:18:55.359Z,101015.63
2019-05-29T16:21:27.582Z,101013.02
2019-05-29T16:23:59.705Z,101018.69
2019-05-29T16:26:31.935Z,101016.47
2019-05-29T16:29:04.046Z,101025.81
2019-05-29T16:31:36.251Z,101019.15
2019-05-29T16:34:08.684Z,101018.09
2019-05-29T16:36:40.873Z,101016.16
2019-05-29T16:39:13.529Z,101017.90
2019-05-29T16:41:45.760Z,101003.39
2019-05-29T16:44:18.277Z,101005.97
2019-05-29T16:46:51.538Z,101005.97
2019-05-29T16:49:23.707Z,101008.78
2019-05-29T16:51:55.904Z,101014.72
2019-05-29T16:54:32.808Z,101014.23
2019-05-29T16:57:05.786Z,101017.36
2019-05-29T17:06:53.530Z,101009.08
2019-05-29T17:09:30.160Z,101011.08
2019-05-29T17:12:23.059Z,101014.13
2019-05-29T17:15:00.176Z,101015.28
2019-05-29T17:17:44.289Z,101015.84
2019-05-29T17:20:46.362Z,101014.17
2019-05-29T17:26:18.920Z,101011.11
2019-05-29T17:28:51.180Z,101022.86
2019-05-29T17:38:37.822Z,101021.19
2019-05-29T17:41:26.142Z,101025.67
2019-05-29T17:44:05.224Z,101025.08
2019-05-29T17:46:40.740Z,101028.75
2019-05-29T17:49:13.326Z,101027.88
2019-05-29T17:51:45.612Z,101034.86
2019-05-29T17:54:17.968Z,101035.70
2019-05-29T17:56:50.246Z,101039.59
2019-05-29T17:59:22.545Z,101047.42
2019-05-29T18:01:54.862Z,101051.05
2019-05-29T18:04:27.067Z,101056.34
2019-05-29T18:06:59.287Z,101048.80
2019-05-29T18:09:31.858Z,101063.30
2019-05-29T18:12:04.071Z,101064.70
2019-05-29T18:14:36.323Z,101062.14
2019-05-29T18:17:08.599Z,101068.30
2019-05-29T18:19:40.809Z,101067.70
2019-05-29T18:22:12.954Z,101067.67
2019-05-29T18:24:45.183Z,101072.44
2019-05-29T18:27:17.935Z,101076.86
2019-05-29T18:29:51.686Z,101073.51
2019-05-29T18:32:24.491Z,101063.45
2019-05-29T19:28:34.918Z,101095.53
2019-05-29T19:31:08.648Z,101087.39
2019-05-29T19:33:43.685Z,101102.45
2019-05-29T19:36:15.912Z,101093.47
2019-05-29T19:38:48.090Z,101094.31
2019-05-29T19:41:20.383Z,101092.33
2019-05-29T19:43:52.609Z,101095.92
2019-05-29T19:46:28.549Z,101092.48
2019-05-29T19:49:00.963Z,101088.86
2019-05-29T19:51:33.526Z,101083.48
2019-05-29T19:54:06.728Z,101087.64
2019-05-29T19:56:43.560Z,101093.24
2019-05-29T19:59:15.748Z,101086.25
2019-05-29T20:01:48.245Z,101077.84
2019-05-29T20:04:23.400Z,101079.20
2019-05-29T20:06:55.478Z,101079.95
2019-05-29T20:09:27.663Z,101076.12
2019-05-29T20:12:01.329Z,101073.56
2019-05-29T20:14:35.792Z,101070.20
2019-05-29T20:17:08.035Z,101072.03
2019-05-29T20:19:41.024Z,101067.83
2019-05-29T20:22:13.208Z,101074.16
2019-05-29T20:24:45.264Z,101068.84
2019-05-29T20:27:17.255Z,101072.06
2019-05-29T20:29:49.391Z,101072.00
2019-05-29T20:32:21.385Z,101076.63
2019-05-29T20:34:53.514Z,101072.37
2019-05-29T20:37:25.582Z,101073.36
2019-05-29T20:39:58.873Z,101076.59
2019-05-29T20:42:32.110Z,101077.61
2019-05-29T20:45:06.744Z,101074.39
2019-05-29T20:47:40.111Z,101074.86
2019-05-29T20:50:12.444Z,101076.52
2019-05-29T20:52:44.509Z,101070.69
2019-05-29T20:55:16.509Z,101071.64
2019-05-29T20:57:48.717Z,101075.33
2019-05-29T21:00:20.844Z,101073.73
2019-05-29T21:02:52.937Z,101067.66
2019-05-29T21:05:25.006Z,101070.75
2019-05-29T21:07:57.197Z,101074.08
2019-05-29T21:10:29.177Z,101076.77
2019-05-29T21:13:01.264Z,101069.50
2019-05-29T21:15:33.598Z,101073.84
2019-05-29T21:18:05.875Z,101074.39
2019-05-29T21:20:38.326Z,101079.30
2019-05-29T21:23:10.549Z,101078.14
2019-05-29T21:25:42.904Z,101075.49
2019-05-29T21:28:15.124Z,101072.64
2019-05-29T21:30:47.129Z,101069.16
2019-05-29T21:33:19.191Z,101067.84
2019-05-29T21:35:51.197Z,101063.75
2019-05-29T21:38:23.147Z,101071.53
2019-05-29T21:40:56.087Z,101075.00
2019-05-29T21:43:28.151Z,101071.14
2019-05-29T21:46:00.129Z,101071.72
2019-05-29T21:48:32.359Z,101074.58
2019-05-29T21:51:04.458Z,101070.50
2019-05-29T21:53:37.258Z,101072.86
2019-05-29T21:56:09.399Z,101074.56
2019-05-29T21:58:58.998Z,101073.67
2019-05-29T22:01:15.526Z,101076.80
2019-05-29T22:03:48.828Z,101084.83
2019-05-29T22:06:22.232Z,101097.03
2019-05-29T22:08:54.216Z,101090.53
2019-05-29T22:11:26.339Z,101089.02
2019-05-29T22:13:58.601Z,101085.16
2019-05-29T22:16:30.772Z,101081.49
2019-05-29T22:19:04.296Z,101091.55
2019-05-29T22:21:36.550Z,101091.00
2019-05-29T22:24:08.693Z,101093.48
2019-05-29T22:26:40.745Z,101091.41
2019-05-29T22:29:18.203Z,101086.19
2019-05-29T22:31:46.593Z,101086.83
2019-05-29T22:34:18.818Z,101091.05
2019-05-29T22:36:51.426Z,101090.84
2019-05-29T22:39:23.766Z,101091.36
2019-05-29T22:41:57.592Z,101094.15
2019-05-29T22:44:29.982Z,101088.80
2019-05-29T22:47:02.130Z,101092.60
2019-05-29T22:49:35.292Z,101096.59
2019-05-29T22:52:07.579Z,101096.06
2019-05-29T22:54:39.894Z,101097.81
2019-05-29T22:57:12.167Z,101098.46
2019-05-29T22:59:44.151Z,101100.59
2019-05-29T23:02:16.239Z,101103.25
2019-05-29T23:04:48.475Z,101097.70
2019-05-29T23:07:20.699Z,101092.98
2019-05-29T23:09:54.232Z,101100.12
2019-05-29T23:12:26.652Z,101091.52
2019-05-29T23:15:00.641Z,101094.95
2019-05-29T23:17:34.068Z,101093.45
2019-05-29T23:20:09.244Z,101102.71
2019-05-29T23:22:41.640Z,101103.19
2019-05-29T23:25:13.896Z,101095.28
2019-05-29T23:27:46.082Z,101093.30
2019-05-29T23:30:18.254Z,101101.80
2019-05-29T23:32:50.801Z,101098.71
2019-05-29T23:35:23.048Z,101092.26
2019-05-29T23:37:55.251Z,101099.03
2019-05-29T23:40:27.475Z,101099.09
2019-05-29T23:42:59.647Z,101095.63
2019-05-29T23:45:31.927Z,101095.88
2019-05-29T23:48:04.081Z,101099.66
2019-05-29T23:50:37.307Z,101100.69
2019-05-29T23:53:09.888Z,101102.01
2019-05-29T23:55:42.179Z,101101.83
2019-05-29T23:58:14.324Z,101100.91
